sensor_id;sensor_type;location;lat;lon;timestamp;P1;durP1;ratioP1;P2;durP2;ratioP2
14923;SDS011;7554;43.600;1.480;2023-11-19T00:02:03;21.17;;;15.23;;
14923;SDS011;7554;43.600;1.480;2023-11-19T00:04:33;22.63;;;14.97;;
14923;SDS011;7554;43.600;1.480;2023-11-19T00:07:04;22.07;;;15.20;;
14923;SDS011;7554;43.600;1.480;2023-11-19T00:09:32;22.07;;;14.77;;
14923;SDS011;7554;43.600;1.480;2023-11-19T00:12:02;21.00;;;14.70;;
14923;SDS011;7554;43.600;1.480;2023-11-19T00:14:30;21.63;;;14.97;;
14923;SDS011;7554;43.600;1.480;2023-11-19T00:16:57;20.77;;;14.20;;
14923;SDS011;7554;43.600;1.480;2023-11-19T00:19:26;18.57;;;13.80;;
14923;SDS011;7554;43.600;1.480;2023-11-19T00:21:53;21.37;;;14.97;;
14923;SDS011;7554;43.600;1.480;2023-11-19T00:24:21;23.60;;;14.90;;
14923;SDS011;7554;43.600;1.480;2023-11-19T00:26:48;23.53;;;15.20;;
14923;SDS011;7554;43.600;1.480;2023-11-19T00:29:15;20.27;;;14.53;;
14923;SDS011;7554;43.600;1.480;2023-11-19T00:31:45;19.93;;;13.90;;
14923;SDS011;7554;43.600;1.480;2023-11-19T00:34:12;19.50;;;14.03;;
14923;SDS011;7554;43.600;1.480;2023-11-19T00:36:41;18.10;;;13.13;;
14923;SDS011;7554;43.600;1.480;2023-11-19T00:39:10;25.90;;;17.83;;
14923;SDS011;7554;43.600;1.480;2023-11-19T00:41:40;26.10;;;13.87;;
14923;SDS011;7554;43.600;1.480;2023-11-19T00:44:07;20.60;;;12.23;;
14923;SDS011;7554;43.600;1.480;2023-11-19T00:46:34;18.57;;;13.13;;
14923;SDS011;7554;43.600;1.480;2023-11-19T00:49:02;18.00;;;12.60;;
14923;SDS011;7554;43.600;1.480;2023-11-19T00:51:29;16.27;;;12.50;;
14923;SDS011;7554;43.600;1.480;2023-11-19T00:53:58;18.20;;;12.37;;
14923;SDS011;7554;43.600;1.480;2023-11-19T00:56:26;18.20;;;13.40;;
14923;SDS011;7554;43.600;1.480;2023-11-19T00:58:53;18.63;;;12.47;;
14923;SDS011;7554;43.600;1.480;2023-11-19T01:01:21;15.97;;;12.07;;
14923;SDS011;7554;43.600;1.480;2023-11-19T01:03:48;17.93;;;12.57;;
14923;SDS011;7554;43.600;1.480;2023-11-19T01:06:25;25.37;;;18.37;;
14923;SDS011;7554;43.600;1.480;2023-11-19T01:08:55;18.67;;;13.80;;
14923;SDS011;7554;43.600;1.480;2023-11-19T01:11:25;19.83;;;12.57;;
14923;SDS011;7554;43.600;1.480;2023-11-19T01:13:53;17.70;;;12.37;;
14923;SDS011;7554;43.600;1.480;2023-11-19T01:16:20;19.37;;;12.40;;
14923;SDS011;7554;43.600;1.480;2023-11-19T01:18:48;18.07;;;13.03;;
14923;SDS011;7554;43.600;1.480;2023-11-19T01:21:15;16.43;;;12.53;;
14923;SDS011;7554;43.600;1.480;2023-11-19T01:23:43;20.07;;;12.83;;
14923;SDS011;7554;43.600;1.480;2023-11-19T01:26:10;18.47;;;12.30;;
14923;SDS011;7554;43.600;1.480;2023-11-19T01:28:40;17.77;;;12.97;;
14923;SDS011;7554;43.600;1.480;2023-11-19T01:31:09;21.37;;;12.60;;
14923;SDS011;7554;43.600;1.480;2023-11-19T01:33:38;16.73;;;12.13;;
14923;SDS011;7554;43.600;1.480;2023-11-19T01:36:06;16.37;;;11.93;;
14923;SDS011;7554;43.600;1.480;2023-11-19T01:38:34;16.43;;;12.47;;
14923;SDS011;7554;43.600;1.480;2023-11-19T01:41:03;19.47;;;12.23;;
14923;SDS011;7554;43.600;1.480;2023-11-19T01:43:31;19.93;;;12.20;;
14923;SDS011;7554;43.600;1.480;2023-11-19T01:46:04;20.27;;;12.13;;
14923;SDS011;7554;43.600;1.480;2023-11-19T01:48:32;15.77;;;11.53;;
14923;SDS011;7554;43.600;1.480;2023-11-19T01:51:01;17.43;;;11.50;;
14923;SDS011;7554;43.600;1.480;2023-11-19T01:53:29;17.30;;;12.63;;
14923;SDS011;7554;43.600;1.480;2023-11-19T01:55:58;16.73;;;12.23;;
14923;SDS011;7554;43.600;1.480;2023-11-19T01:58:25;16.33;;;10.20;;
14923;SDS011;7554;43.600;1.480;2023-11-19T02:00:55;14.97;;;9.67;;
14923;SDS011;7554;43.600;1.480;2023-11-19T02:03:25;15.10;;;9.97;;
14923;SDS011;7554;43.600;1.480;2023-11-19T02:05:54;15.07;;;10.43;;
14923;SDS011;7554;43.600;1.480;2023-11-19T02:08:21;14.83;;;10.93;;
14923;SDS011;7554;43.600;1.480;2023-11-19T02:10:49;15.77;;;10.43;;
14923;SDS011;7554;43.600;1.480;2023-11-19T02:13:16;14.20;;;10.10;;
14923;SDS011;7554;43.600;1.480;2023-11-19T02:15:44;15.37;;;10.43;;
14923;SDS011;7554;43.600;1.480;2023-11-19T02:18:17;18.40;;;10.37;;
14923;SDS011;7554;43.600;1.480;2023-11-19T02:20:50;16.23;;;9.80;;
14923;SDS011;7554;43.600;1.480;2023-11-19T02:23:17;15.93;;;10.43;;
14923;SDS011;7554;43.600;1.480;2023-11-19T02:25:47;14.60;;;10.27;;
14923;SDS011;7554;43.600;1.480;2023-11-19T02:28:26;14.73;;;9.63;;
14923;SDS011;7554;43.600;1.480;2023-11-19T02:30:54;15.57;;;9.73;;
14923;SDS011;7554;43.600;1.480;2023-11-19T02:33:21;13.10;;;9.40;;
14923;SDS011;7554;43.600;1.480;2023-11-19T02:35:50;12.53;;;9.80;;
14923;SDS011;7554;43.600;1.480;2023-11-19T02:38:17;12.37;;;9.50;;
14923;SDS011;7554;43.600;1.480;2023-11-19T02:40:46;14.47;;;9.57;;
14923;SDS011;7554;43.600;1.480;2023-11-19T02:43:14;14.67;;;10.03;;
14923;SDS011;7554;43.600;1.480;2023-11-19T02:45:43;16.33;;;10.30;;
14923;SDS011;7554;43.600;1.480;2023-11-19T02:48:11;13.63;;;9.40;;
14923;SDS011;7554;43.600;1.480;2023-11-19T02:50:39;14.53;;;9.03;;
14923;SDS011;7554;43.600;1.480;2023-11-19T02:53:06;12.90;;;9.20;;
14923;SDS011;7554;43.600;1.480;2023-11-19T02:55:34;13.47;;;9.07;;
14923;SDS011;7554;43.600;1.480;2023-11-19T02:58:03;17.20;;;9.43;;
14923;SDS011;7554;43.600;1.480;2023-11-19T03:00:43;14.20;;;9.40;;
14923;SDS011;7554;43.600;1.480;2023-11-19T03:03:17;13.50;;;9.00;;
14923;SDS011;7554;43.600;1.480;2023-11-19T03:05:45;12.80;;;9.03;;
14923;SDS011;7554;43.600;1.480;2023-11-19T03:08:13;11.87;;;8.80;;
14923;SDS011;7554;43.600;1.480;2023-11-19T03:10:41;13.17;;;8.53;;
14923;SDS011;7554;43.600;1.480;2023-11-19T03:13:10;15.67;;;9.50;;
14923;SDS011;7554;43.600;1.480;2023-11-19T03:15:39;11.47;;;8.47;;
14923;SDS011;7554;43.600;1.480;2023-11-19T03:18:08;13.87;;;8.33;;
14923;SDS011;7554;43.600;1.480;2023-11-19T03:20:36;13.40;;;8.93;;
14923;SDS011;7554;43.600;1.480;2023-11-19T03:23:03;10.37;;;8.00;;
14923;SDS011;7554;43.600;1.480;2023-11-19T03:25:31;13.40;;;8.70;;
14923;SDS011;7554;43.600;1.480;2023-11-19T03:27:59;14.00;;;9.17;;
14923;SDS011;7554;43.600;1.480;2023-11-19T03:30:27;12.23;;;8.90;;
14923;SDS011;7554;43.600;1.480;2023-11-19T03:32:55;12.93;;;8.73;;
14923;SDS011;7554;43.600;1.480;2023-11-19T03:35:25;15.00;;;8.60;;
14923;SDS011;7554;43.600;1.480;2023-11-19T03:37:53;11.30;;;7.90;;
14923;SDS011;7554;43.600;1.480;2023-11-19T03:40:21;16.10;;;8.17;;
14923;SDS011;7554;43.600;1.480;2023-11-19T03:42:49;14.97;;;8.50;;
14923;SDS011;7554;43.600;1.480;2023-11-19T03:45:16;12.43;;;8.43;;
14923;SDS011;7554;43.600;1.480;2023-11-19T03:47:43;15.53;;;8.77;;
14923;SDS011;7554;43.600;1.480;2023-11-19T03:50:11;12.40;;;8.47;;
14923;SDS011;7554;43.600;1.480;2023-11-19T03:52:42;12.07;;;8.63;;
14923;SDS011;7554;43.600;1.480;2023-11-19T03:55:09;12.73;;;8.13;;
14923;SDS011;7554;43.600;1.480;2023-11-19T03:57:37;12.53;;;8.17;;
14923;SDS011;7554;43.600;1.480;2023-11-19T04:00:05;11.60;;;7.80;;
14923;SDS011;7554;43.600;1.480;2023-11-19T04:02:35;8.47;;;7.03;;
14923;SDS011;7554;43.600;1.480;2023-11-19T04:05:02;11.07;;;7.77;;
14923;SDS011;7554;43.600;1.480;2023-11-19T04:07:31;11.37;;;7.13;;
14923;SDS011;7554;43.600;1.480;2023-11-19T04:10:00;11.63;;;8.23;;
14923;SDS011;7554;43.600;1.480;2023-11-19T04:12:28;13.60;;;8.17;;
14923;SDS011;7554;43.600;1.480;2023-11-19T04:14:56;12.47;;;7.87;;
14923;SDS011;7554;43.600;1.480;2023-11-19T04:17:23;11.73;;;8.90;;
14923;SDS011;7554;43.600;1.480;2023-11-19T04:19:51;9.77;;;8.00;;
14923;SDS011;7554;43.600;1.480;2023-11-19T04:22:18;10.77;;;8.00;;
14923;SDS011;7554;43.600;1.480;2023-11-19T04:24:46;9.37;;;7.13;;
14923;SDS011;7554;43.600;1.480;2023-11-19T04:27:15;10.13;;;7.50;;
14923;SDS011;7554;43.600;1.480;2023-11-19T04:29:42;12.30;;;7.70;;
14923;SDS011;7554;43.600;1.480;2023-11-19T04:32:11;15.17;;;8.13;;
14923;SDS011;7554;43.600;1.480;2023-11-19T04:34:38;12.47;;;8.40;;
14923;SDS011;7554;43.600;1.480;2023-11-19T04:37:05;11.60;;;8.17;;
14923;SDS011;7554;43.600;1.480;2023-11-19T04:39:32;13.60;;;8.47;;
14923;SDS011;7554;43.600;1.480;2023-11-19T04:42:00;11.00;;;8.50;;
14923;SDS011;7554;43.600;1.480;2023-11-19T04:44:29;13.87;;;9.80;;
14923;SDS011;7554;43.600;1.480;2023-11-19T04:46:56;12.03;;;8.83;;
14923;SDS011;7554;43.600;1.480;2023-11-19T04:49:23;11.33;;;9.33;;
14923;SDS011;7554;43.600;1.480;2023-11-19T04:51:52;12.70;;;9.27;;
14923;SDS011;7554;43.600;1.480;2023-11-19T04:54:19;16.57;;;9.37;;
14923;SDS011;7554;43.600;1.480;2023-11-19T04:56:46;11.20;;;9.40;;
14923;SDS011;7554;43.600;1.480;2023-11-19T04:59:14;13.93;;;8.50;;
14923;SDS011;7554;43.600;1.480;2023-11-19T05:01:46;11.93;;;9.10;;
14923;SDS011;7554;43.600;1.480;2023-11-19T05:04:14;11.60;;;8.37;;
14923;SDS011;7554;43.600;1.480;2023-11-19T05:06:43;13.60;;;8.60;;
14923;SDS011;7554;43.600;1.480;2023-11-19T05:09:11;10.90;;;8.20;;
14923;SDS011;7554;43.600;1.480;2023-11-19T05:11:39;14.77;;;8.20;;
14923;SDS011;7554;43.600;1.480;2023-11-19T05:14:06;11.20;;;8.00;;
14923;SDS011;7554;43.600;1.480;2023-11-19T05:16:34;11.67;;;7.73;;
14923;SDS011;7554;43.600;1.480;2023-11-19T05:19:03;12.73;;;8.80;;
14923;SDS011;7554;43.600;1.480;2023-11-19T05:21:30;11.10;;;8.50;;
14923;SDS011;7554;43.600;1.480;2023-11-19T05:23:57;10.20;;;7.80;;
14923;SDS011;7554;43.600;1.480;2023-11-19T05:26:24;10.73;;;8.23;;
14923;SDS011;7554;43.600;1.480;2023-11-19T05:28:52;12.17;;;8.87;;
14923;SDS011;7554;43.600;1.480;2023-11-19T05:31:19;12.67;;;8.67;;
14923;SDS011;7554;43.600;1.480;2023-11-19T05:33:47;13.17;;;7.97;;
14923;SDS011;7554;43.600;1.480;2023-11-19T05:36:15;11.90;;;8.43;;
14923;SDS011;7554;43.600;1.480;2023-11-19T05:38:43;15.10;;;8.90;;
14923;SDS011;7554;43.600;1.480;2023-11-19T05:41:10;15.10;;;9.30;;
14923;SDS011;7554;43.600;1.480;2023-11-19T05:43:38;13.40;;;8.37;;
14923;SDS011;7554;43.600;1.480;2023-11-19T05:46:06;14.50;;;9.07;;
14923;SDS011;7554;43.600;1.480;2023-11-19T05:48:34;12.53;;;9.20;;
14923;SDS011;7554;43.600;1.480;2023-11-19T05:51:01;13.40;;;9.40;;
14923;SDS011;7554;43.600;1.480;2023-11-19T05:53:30;17.53;;;9.40;;
14923;SDS011;7554;43.600;1.480;2023-11-19T05:55:57;13.50;;;9.27;;
14923;SDS011;7554;43.600;1.480;2023-11-19T05:58:29;14.90;;;9.87;;
14923;SDS011;7554;43.600;1.480;2023-11-19T06:00:57;14.50;;;9.27;;
14923;SDS011;7554;43.600;1.480;2023-11-19T06:03:26;16.10;;;10.33;;
14923;SDS011;7554;43.600;1.480;2023-11-19T06:05:53;14.67;;;10.00;;
14923;SDS011;7554;43.600;1.480;2023-11-19T06:08:20;13.20;;;10.07;;
14923;SDS011;7554;43.600;1.480;2023-11-19T06:10:49;14.50;;;10.67;;
14923;SDS011;7554;43.600;1.480;2023-11-19T06:13:16;12.53;;;9.70;;
14923;SDS011;7554;43.600;1.480;2023-11-19T06:15:44;15.00;;;10.13;;
14923;SDS011;7554;43.600;1.480;2023-11-19T06:18:12;14.13;;;9.73;;
14923;SDS011;7554;43.600;1.480;2023-11-19T06:20:40;15.77;;;9.67;;
14923;SDS011;7554;43.600;1.480;2023-11-19T06:23:07;14.43;;;10.33;;
14923;SDS011;7554;43.600;1.480;2023-11-19T06:25:35;15.80;;;10.17;;
14923;SDS011;7554;43.600;1.480;2023-11-19T06:28:05;15.33;;;10.63;;
14923;SDS011;7554;43.600;1.480;2023-11-19T06:30:33;15.37;;;10.07;;
14923;SDS011;7554;43.600;1.480;2023-11-19T06:33:01;15.37;;;10.20;;
14923;SDS011;7554;43.600;1.480;2023-11-19T06:35:29;28.50;;;13.10;;
14923;SDS011;7554;43.600;1.480;2023-11-19T06:38:01;16.97;;;10.43;;
14923;SDS011;7554;43.600;1.480;2023-11-19T06:40:29;14.57;;;9.50;;
14923;SDS011;7554;43.600;1.480;2023-11-19T06:42:57;13.40;;;9.27;;
14923;SDS011;7554;43.600;1.480;2023-11-19T06:45:25;10.50;;;8.70;;
14923;SDS011;7554;43.600;1.480;2023-11-19T06:47:53;15.70;;;9.13;;
14923;SDS011;7554;43.600;1.480;2023-11-19T06:50:20;12.17;;;8.87;;
14923;SDS011;7554;43.600;1.480;2023-11-19T06:52:47;13.23;;;9.50;;
14923;SDS011;7554;43.600;1.480;2023-11-19T06:55:15;12.13;;;9.30;;
14923;SDS011;7554;43.600;1.480;2023-11-19T06:57:42;13.93;;;9.73;;
14923;SDS011;7554;43.600;1.480;2023-11-19T07:00:10;13.97;;;9.77;;
14923;SDS011;7554;43.600;1.480;2023-11-19T07:02:40;11.33;;;8.83;;
14923;SDS011;7554;43.600;1.480;2023-11-19T07:05:07;15.50;;;10.37;;
14923;SDS011;7554;43.600;1.480;2023-11-19T07:07:34;13.10;;;10.00;;
14923;SDS011;7554;43.600;1.480;2023-11-19T07:10:02;12.50;;;9.33;;
14923;SDS011;7554;43.600;1.480;2023-11-19T07:12:32;13.67;;;8.63;;
14923;SDS011;7554;43.600;1.480;2023-11-19T07:15:01;11.93;;;8.40;;
14923;SDS011;7554;43.600;1.480;2023-11-19T07:17:29;14.30;;;8.80;;
14923;SDS011;7554;43.600;1.480;2023-11-19T07:19:57;12.03;;;9.07;;
14923;SDS011;7554;43.600;1.480;2023-11-19T07:22:25;12.40;;;10.27;;
14923;SDS011;7554;43.600;1.480;2023-11-19T07:24:54;17.80;;;12.07;;
14923;SDS011;7554;43.600;1.480;2023-11-19T07:27:21;11.63;;;9.53;;
14923;SDS011;7554;43.600;1.480;2023-11-19T07:29:49;14.27;;;9.70;;
14923;SDS011;7554;43.600;1.480;2023-11-19T07:32:16;14.53;;;9.40;;
14923;SDS011;7554;43.600;1.480;2023-11-19T07:34:44;18.77;;;8.67;;
14923;SDS011;7554;43.600;1.480;2023-11-19T07:37:12;12.07;;;9.10;;
14923;SDS011;7554;43.600;1.480;2023-11-19T07:39:42;16.60;;;8.83;;
14923;SDS011;7554;43.600;1.480;2023-11-19T07:42:09;14.27;;;8.83;;
14923;SDS011;7554;43.600;1.480;2023-11-19T07:44:36;12.77;;;9.10;;
14923;SDS011;7554;43.600;1.480;2023-11-19T07:47:04;12.50;;;8.73;;
14923;SDS011;7554;43.600;1.480;2023-11-19T07:49:31;11.57;;;8.43;;
14923;SDS011;7554;43.600;1.480;2023-11-19T07:51:58;11.90;;;8.23;;
14923;SDS011;7554;43.600;1.480;2023-11-19T07:54:29;14.63;;;8.00;;
14923;SDS011;7554;43.600;1.480;2023-11-19T07:56:57;11.67;;;8.37;;
14923;SDS011;7554;43.600;1.480;2023-11-19T07:59:24;10.50;;;8.20;;
14923;SDS011;7554;43.600;1.480;2023-11-19T08:01:51;10.07;;;7.37;;
14923;SDS011;7554;43.600;1.480;2023-11-19T08:04:19;13.13;;;7.73;;
14923;SDS011;7554;43.600;1.480;2023-11-19T08:06:46;11.43;;;7.17;;
14923;SDS011;7554;43.600;1.480;2023-11-19T08:09:13;12.17;;;7.67;;
14923;SDS011;7554;43.600;1.480;2023-11-19T08:11:42;11.10;;;7.50;;
14923;SDS011;7554;43.600;1.480;2023-11-19T08:14:10;11.10;;;7.80;;
14923;SDS011;7554;43.600;1.480;2023-11-19T08:16:38;13.97;;;7.23;;
14923;SDS011;7554;43.600;1.480;2023-11-19T08:19:06;15.67;;;9.27;;
14923;SDS011;7554;43.600;1.480;2023-11-19T08:21:33;10.93;;;6.70;;
14923;SDS011;7554;43.600;1.480;2023-11-19T08:24:01;11.57;;;6.57;;
14923;SDS011;7554;43.600;1.480;2023-11-19T08:26:28;8.63;;;6.70;;
14923;SDS011;7554;43.600;1.480;2023-11-19T08:28:57;11.43;;;7.70;;
14923;SDS011;7554;43.600;1.480;2023-11-19T08:31:24;10.10;;;7.13;;
14923;SDS011;7554;43.600;1.480;2023-11-19T08:33:52;12.37;;;7.70;;
14923;SDS011;7554;43.600;1.480;2023-11-19T08:36:19;9.93;;;7.30;;
14923;SDS011;7554;43.600;1.480;2023-11-19T08:38:47;10.93;;;7.57;;
14923;SDS011;7554;43.600;1.480;2023-11-19T08:41:15;14.43;;;7.97;;
14923;SDS011;7554;43.600;1.480;2023-11-19T08:43:43;11.80;;;7.87;;
14923;SDS011;7554;43.600;1.480;2023-11-19T08:46:11;11.30;;;8.00;;
14923;SDS011;7554;43.600;1.480;2023-11-19T08:48:39;10.03;;;6.87;;
14923;SDS011;7554;43.600;1.480;2023-11-19T08:51:06;9.30;;;7.23;;
14923;SDS011;7554;43.600;1.480;2023-11-19T08:53:33;15.60;;;8.20;;
14923;SDS011;7554;43.600;1.480;2023-11-19T08:56:01;12.40;;;7.37;;
14923;SDS011;7554;43.600;1.480;2023-11-19T08:58:28;13.70;;;8.13;;
14923;SDS011;7554;43.600;1.480;2023-11-19T09:00:56;10.47;;;7.47;;
14923;SDS011;7554;43.600;1.480;2023-11-19T09:03:24;9.23;;;7.67;;
14923;SDS011;7554;43.600;1.480;2023-11-19T09:05:52;13.07;;;7.50;;
14923;SDS011;7554;43.600;1.480;2023-11-19T09:08:19;9.83;;;7.53;;
14923;SDS011;7554;43.600;1.480;2023-11-19T09:10:47;11.53;;;8.17;;
14923;SDS011;7554;43.600;1.480;2023-11-19T09:13:14;14.47;;;8.20;;
14923;SDS011;7554;43.600;1.480;2023-11-19T09:15:41;13.27;;;8.47;;
14923;SDS011;7554;43.600;1.480;2023-11-19T09:18:09;18.13;;;8.40;;
14923;SDS011;7554;43.600;1.480;2023-11-19T09:20:37;13.83;;;8.00;;
14923;SDS011;7554;43.600;1.480;2023-11-19T09:23:05;9.73;;;8.07;;
14923;SDS011;7554;43.600;1.480;2023-11-19T09:25:34;10.17;;;8.10;;
14923;SDS011;7554;43.600;1.480;2023-11-19T09:28:01;13.33;;;8.10;;
14923;SDS011;7554;43.600;1.480;2023-11-19T09:30:28;10.20;;;8.47;;
14923;SDS011;7554;43.600;1.480;2023-11-19T09:32:58;13.30;;;8.63;;
14923;SDS011;7554;43.600;1.480;2023-11-19T09:35:26;11.63;;;8.13;;
14923;SDS011;7554;43.600;1.480;2023-11-19T09:37:54;10.07;;;8.30;;
14923;SDS011;7554;43.600;1.480;2023-11-19T09:40:22;13.97;;;8.47;;
14923;SDS011;7554;43.600;1.480;2023-11-19T09:42:49;17.83;;;8.30;;
14923;SDS011;7554;43.600;1.480;2023-11-19T09:45:17;16.07;;;9.20;;
14923;SDS011;7554;43.600;1.480;2023-11-19T09:47:47;13.03;;;9.20;;
14923;SDS011;7554;43.600;1.480;2023-11-19T09:50:18;14.70;;;9.50;;
14923;SDS011;7554;43.600;1.480;2023-11-19T09:52:46;12.10;;;8.93;;
14923;SDS011;7554;43.600;1.480;2023-11-19T09:55:15;18.23;;;9.50;;
14923;SDS011;7554;43.600;1.480;2023-11-19T09:57:42;15.67;;;9.40;;
14923;SDS011;7554;43.600;1.480;2023-11-19T10:00:11;15.90;;;9.37;;
14923;SDS011;7554;43.600;1.480;2023-11-19T10:02:41;13.03;;;9.63;;
14923;SDS011;7554;43.600;1.480;2023-11-19T10:05:11;15.60;;;9.87;;
14923;SDS011;7554;43.600;1.480;2023-11-19T10:07:40;14.47;;;8.63;;
14923;SDS011;7554;43.600;1.480;2023-11-19T10:10:08;14.73;;;9.27;;
14923;SDS011;7554;43.600;1.480;2023-11-19T10:12:40;12.40;;;9.23;;
14923;SDS011;7554;43.600;1.480;2023-11-19T10:15:08;12.43;;;9.53;;
14923;SDS011;7554;43.600;1.480;2023-11-19T10:17:43;13.43;;;9.10;;
14923;SDS011;7554;43.600;1.480;2023-11-19T10:20:11;12.73;;;8.43;;
14923;SDS011;7554;43.600;1.480;2023-11-19T10:22:38;13.10;;;8.80;;
14923;SDS011;7554;43.600;1.480;2023-11-19T10:25:05;12.30;;;8.07;;
14923;SDS011;7554;43.600;1.480;2023-11-19T10:27:53;13.27;;;7.90;;
14923;SDS011;7554;43.600;1.480;2023-11-19T10:30:21;16.27;;;7.90;;
14923;SDS011;7554;43.600;1.480;2023-11-19T10:33:05;8.80;;;7.13;;
14923;SDS011;7554;43.600;1.480;2023-11-19T10:35:33;10.10;;;7.80;;
14923;SDS011;7554;43.600;1.480;2023-11-19T10:38:01;11.03;;;8.07;;
14923;SDS011;7554;43.600;1.480;2023-11-19T10:40:39;9.57;;;6.97;;
14923;SDS011;7554;43.600;1.480;2023-11-19T10:43:08;9.57;;;7.00;;
14923;SDS011;7554;43.600;1.480;2023-11-19T10:45:36;11.30;;;7.10;;
14923;SDS011;7554;43.600;1.480;2023-11-19T10:48:04;8.57;;;6.27;;
14923;SDS011;7554;43.600;1.480;2023-11-19T10:50:32;9.67;;;6.47;;
14923;SDS011;7554;43.600;1.480;2023-11-19T10:53:01;16.67;;;8.30;;
14923;SDS011;7554;43.600;1.480;2023-11-19T10:55:30;9.20;;;5.53;;
14923;SDS011;7554;43.600;1.480;2023-11-19T10:58:00;9.93;;;6.07;;
14923;SDS011;7554;43.600;1.480;2023-11-19T11:00:30;11.23;;;5.87;;
14923;SDS011;7554;43.600;1.480;2023-11-19T11:03:05;10.17;;;6.13;;
14923;SDS011;7554;43.600;1.480;2023-11-19T11:05:37;8.77;;;5.80;;
14923;SDS011;7554;43.600;1.480;2023-11-19T11:08:06;7.03;;;5.30;;
14923;SDS011;7554;43.600;1.480;2023-11-19T11:10:35;8.37;;;5.13;;
14923;SDS011;7554;43.600;1.480;2023-11-19T11:13:09;9.43;;;5.50;;
14923;SDS011;7554;43.600;1.480;2023-11-19T11:15:38;7.20;;;5.13;;
14923;SDS011;7554;43.600;1.480;2023-11-19T11:18:08;9.57;;;5.20;;
14923;SDS011;7554;43.600;1.480;2023-11-19T11:20:36;9.00;;;5.33;;
14923;SDS011;7554;43.600;1.480;2023-11-19T11:23:18;9.43;;;5.10;;
14923;SDS011;7554;43.600;1.480;2023-11-19T11:26:09;9.60;;;5.63;;
14923;SDS011;7554;43.600;1.480;2023-11-19T11:28:52;11.23;;;5.50;;
14923;SDS011;7554;43.600;1.480;2023-11-19T11:31:29;10.07;;;5.57;;
14923;SDS011;7554;43.600;1.480;2023-11-19T11:34:09;9.13;;;5.63;;
14923;SDS011;7554;43.600;1.480;2023-11-19T11:36:53;14.87;;;6.93;;
14923;SDS011;7554;43.600;1.480;2023-11-19T11:39:39;10.27;;;7.17;;
14923;SDS011;7554;43.600;1.480;2023-11-19T11:45:03;9.67;;;5.57;;
14923;SDS011;7554;43.600;1.480;2023-11-19T11:53:21;9.07;;;5.53;;
14923;SDS011;7554;43.600;1.480;2023-11-19T11:55:56;10.10;;;5.20;;
14923;SDS011;7554;43.600;1.480;2023-11-19T11:58:25;12.03;;;5.37;;
14923;SDS011;7554;43.600;1.480;2023-11-19T12:00:57;8.07;;;4.47;;
14923;SDS011;7554;43.600;1.480;2023-11-19T12:03:26;8.67;;;4.07;;
14923;SDS011;7554;43.600;1.480;2023-11-19T12:05:55;11.77;;;5.53;;
14923;SDS011;7554;43.600;1.480;2023-11-19T12:08:27;6.43;;;4.57;;
14923;SDS011;7554;43.600;1.480;2023-11-19T12:10:57;7.00;;;4.67;;
14923;SDS011;7554;43.600;1.480;2023-11-19T12:13:29;7.67;;;4.60;;
14923;SDS011;7554;43.600;1.480;2023-11-19T12:16:12;7.17;;;3.97;;
14923;SDS011;7554;43.600;1.480;2023-11-19T12:18:41;10.03;;;4.63;;
14923;SDS011;7554;43.600;1.480;2023-11-19T12:21:08;8.80;;;4.33;;
14923;SDS011;7554;43.600;1.480;2023-11-19T12:23:43;6.03;;;3.93;;
14923;SDS011;7554;43.600;1.480;2023-11-19T12:29:00;6.80;;;4.10;;
14923;SDS011;7554;43.600;1.480;2023-11-19T12:31:31;8.33;;;3.97;;
14923;SDS011;7554;43.600;1.480;2023-11-19T12:34:04;8.83;;;4.57;;
14923;SDS011;7554;43.600;1.480;2023-11-19T12:36:33;7.13;;;4.50;;
14923;SDS011;7554;43.600;1.480;2023-11-19T12:39:01;7.67;;;5.20;;
14923;SDS011;7554;43.600;1.480;2023-11-19T12:41:29;11.13;;;4.97;;
14923;SDS011;7554;43.600;1.480;2023-11-19T12:44:08;6.93;;;5.00;;
14923;SDS011;7554;43.600;1.480;2023-11-19T12:46:37;6.23;;;4.40;;
14923;SDS011;7554;43.600;1.480;2023-11-19T12:49:06;11.03;;;5.07;;
14923;SDS011;7554;43.600;1.480;2023-11-19T12:51:33;8.00;;;4.87;;
14923;SDS011;7554;43.600;1.480;2023-11-19T12:54:00;8.50;;;4.67;;
14923;SDS011;7554;43.600;1.480;2023-11-19T12:56:29;7.37;;;4.90;;
14923;SDS011;7554;43.600;1.480;2023-11-19T12:58:57;9.53;;;4.73;;
14923;SDS011;7554;43.600;1.480;2023-11-19T13:01:37;6.73;;;4.70;;
14923;SDS011;7554;43.600;1.480;2023-11-19T13:04:16;10.50;;;4.83;;
14923;SDS011;7554;43.600;1.480;2023-11-19T13:06:44;8.57;;;5.47;;
14923;SDS011;7554;43.600;1.480;2023-11-19T13:09:21;11.17;;;6.40;;
14923;SDS011;7554;43.600;1.480;2023-11-19T13:11:49;9.67;;;5.80;;
14923;SDS011;7554;43.600;1.480;2023-11-19T13:14:17;6.83;;;5.47;;
14923;SDS011;7554;43.600;1.480;2023-11-19T13:16:44;9.97;;;5.53;;
14923;SDS011;7554;43.600;1.480;2023-11-19T13:19:13;7.70;;;5.47;;
14923;SDS011;7554;43.600;1.480;2023-11-19T13:21:42;8.93;;;5.37;;
14923;SDS011;7554;43.600;1.480;2023-11-19T13:24:12;9.43;;;5.57;;
14923;SDS011;7554;43.600;1.480;2023-11-19T13:26:39;8.80;;;5.90;;
14923;SDS011;7554;43.600;1.480;2023-11-19T13:29:06;9.47;;;5.60;;
14923;SDS011;7554;43.600;1.480;2023-11-19T13:31:35;8.47;;;5.20;;
14923;SDS011;7554;43.600;1.480;2023-11-19T13:34:03;9.73;;;4.67;;
14923;SDS011;7554;43.600;1.480;2023-11-19T13:36:32;7.37;;;5.00;;
14923;SDS011;7554;43.600;1.480;2023-11-19T13:39:01;11.83;;;4.73;;
14923;SDS011;7554;43.600;1.480;2023-11-19T13:41:29;9.03;;;4.73;;
14923;SDS011;7554;43.600;1.480;2023-11-19T13:43:56;5.37;;;3.80;;
14923;SDS011;7554;43.600;1.480;2023-11-19T13:46:23;7.60;;;5.00;;
14923;SDS011;7554;43.600;1.480;2023-11-19T13:48:51;7.67;;;4.97;;
14923;SDS011;7554;43.600;1.480;2023-11-19T13:51:18;7.37;;;4.23;;
14923;SDS011;7554;43.600;1.480;2023-11-19T13:53:46;17.30;;;5.63;;
14923;SDS011;7554;43.600;1.480;2023-11-19T13:56:14;6.67;;;3.90;;
14923;SDS011;7554;43.600;1.480;2023-11-19T13:58:43;10.07;;;4.77;;
14923;SDS011;7554;43.600;1.480;2023-11-19T14:01:10;8.00;;;4.40;;
14923;SDS011;7554;43.600;1.480;2023-11-19T14:03:38;7.20;;;3.67;;
14923;SDS011;7554;43.600;1.480;2023-11-19T14:06:05;5.57;;;3.70;;
14923;SDS011;7554;43.600;1.480;2023-11-19T14:08:33;4.80;;;3.40;;
14923;SDS011;7554;43.600;1.480;2023-11-19T14:11:00;5.77;;;3.50;;
14923;SDS011;7554;43.600;1.480;2023-11-19T14:13:29;7.50;;;4.40;;
14923;SDS011;7554;43.600;1.480;2023-11-19T14:15:57;13.30;;;3.90;;
14923;SDS011;7554;43.600;1.480;2023-11-19T14:18:23;5.47;;;3.67;;
14923;SDS011;7554;43.600;1.480;2023-11-19T14:20:50;8.73;;;4.30;;
14923;SDS011;7554;43.600;1.480;2023-11-19T14:23:17;6.90;;;3.63;;
14923;SDS011;7554;43.600;1.480;2023-11-19T14:25:45;4.43;;;3.30;;
14923;SDS011;7554;43.600;1.480;2023-11-19T14:28:12;5.80;;;3.23;;
14923;SDS011;7554;43.600;1.480;2023-11-19T14:30:41;16.73;;;4.20;;
14923;SDS011;7554;43.600;1.480;2023-11-19T14:33:10;5.20;;;3.10;;
14923;SDS011;7554;43.600;1.480;2023-11-19T14:35:37;5.00;;;3.10;;
14923;SDS011;7554;43.600;1.480;2023-11-19T14:38:04;5.67;;;2.97;;
14923;SDS011;7554;43.600;1.480;2023-11-19T14:40:34;6.43;;;3.17;;
14923;SDS011;7554;43.600;1.480;2023-11-19T14:43:02;4.93;;;3.30;;
14923;SDS011;7554;43.600;1.480;2023-11-19T14:45:29;8.80;;;3.37;;
14923;SDS011;7554;43.600;1.480;2023-11-19T14:47:58;4.93;;;3.03;;
14923;SDS011;7554;43.600;1.480;2023-11-19T14:50:26;6.13;;;3.67;;
14923;SDS011;7554;43.600;1.480;2023-11-19T14:52:53;4.80;;;3.53;;
14923;SDS011;7554;43.600;1.480;2023-11-19T14:55:21;5.93;;;3.80;;
14923;SDS011;7554;43.600;1.480;2023-11-19T14:57:48;5.63;;;3.87;;
14923;SDS011;7554;43.600;1.480;2023-11-19T15:00:16;10.17;;;3.90;;
14923;SDS011;7554;43.600;1.480;2023-11-19T15:02:44;10.07;;;4.10;;
14923;SDS011;7554;43.600;1.480;2023-11-19T15:05:12;5.27;;;3.40;;
14923;SDS011;7554;43.600;1.480;2023-11-19T15:07:40;21.13;;;4.13;;
14923;SDS011;7554;43.600;1.480;2023-11-19T15:10:07;7.53;;;3.73;;